sensor_id;sensor_type;location;lat;lon;timestamp;temperature;humidity
59923;DHT22;45778;51.142;3.732;2022-10-16T00:01:58;14.50;99.90
59923;DHT22;45778;51.142;3.732;2022-10-16T00:04:24;14.30;99.90
59923;DHT22;45778;51.142;3.732;2022-10-16T00:06:49;14.30;99.90
59923;DHT22;45778;51.142;3.732;2022-10-16T00:09:15;14.30;99.90
59923;DHT22;45778;51.142;3.732;2022-10-16T00:11:41;14.20;99.90
59923;DHT22;45778;51.142;3.732;2022-10-16T00:14:09;14.10;99.90
59923;DHT22;45778;51.142;3.732;2022-10-16T00:16:36;14.00;99.90
59923;DHT22;45778;51.142;3.732;2022-10-16T00:19:03;13.90;99.90
59923;DHT22;45778;51.142;3.732;2022-10-16T00:21:30;13.90;99.90
59923;DHT22;45778;51.142;3.732;2022-10-16T00:24:06;13.80;99.90
59923;DHT22;45778;51.142;3.732;2022-10-16T00:26:34;13.90;99.90
59923;DHT22;45778;51.142;3.732;2022-10-16T00:29:00;13.90;99.90
59923;DHT22;45778;51.142;3.732;2022-10-16T00:31:26;13.80;99.90
59923;DHT22;45778;51.142;3.732;2022-10-16T00:33:52;13.70;99.90
59923;DHT22;45778;51.142;3.732;2022-10-16T00:36:21;13.70;99.90
59923;DHT22;45778;51.142;3.732;2022-10-16T00:38:51;13.70;99.90
59923;DHT22;45778;51.142;3.732;2022-10-16T00:41:19;13.60;99.90
59923;DHT22;45778;51.142;3.732;2022-10-16T00:43:53;13.60;99.90
59923;DHT22;45778;51.142;3.732;2022-10-16T00:49:07;13.40;99.90
59923;DHT22;45778;51.142;3.732;2022-10-16T00:51:36;13.40;99.90
59923;DHT22;45778;51.142;3.732;2022-10-16T00:54:04;13.50;99.90
59923;DHT22;45778;51.142;3.732;2022-10-16T00:56:31;13.40;99.90
59923;DHT22;45778;51.142;3.732;2022-10-16T00:58:58;13.40;99.90
59923;DHT22;45778;51.142;3.732;2022-10-16T01:01:26;13.40;99.90
59923;DHT22;45778;51.142;3.732;2022-10-16T01:03:53;13.40;99.90
59923;DHT22;45778;51.142;3.732;2022-10-16T01:09:40;13.30;99.90
59923;DHT22;45778;51.142;3.732;2022-10-16T01:12:22;13.40;99.90
59923;DHT22;45778;51.142;3.732;2022-10-16T01:15:01;13.40;99.90
59923;DHT22;45778;51.142;3.732;2022-10-16T01:17:51;13.40;99.90
59923;DHT22;45778;51.142;3.732;2022-10-16T01:26:10;13.20;99.90
59923;DHT22;45778;51.142;3.732;2022-10-16T01:28:33;13.30;99.90
59923;DHT22;45778;51.142;3.732;2022-10-16T01:31:00;13.30;99.90
59923;DHT22;45778;51.142;3.732;2022-10-16T01:33:43;13.30;99.90
59923;DHT22;45778;51.142;3.732;2022-10-16T01:36:12;13.30;99.90
59923;DHT22;45778;51.142;3.732;2022-10-16T01:38:39;13.30;99.90
59923;DHT22;45778;51.142;3.732;2022-10-16T01:41:11;13.20;99.90
59923;DHT22;45778;51.142;3.732;2022-10-16T01:43:49;13.20;99.90
59923;DHT22;45778;51.142;3.732;2022-10-16T01:46:18;13.20;99.90
59923;DHT22;45778;51.142;3.732;2022-10-16T01:48:46;13.20;99.90
59923;DHT22;45778;51.142;3.732;2022-10-16T01:51:13;13.10;99.90
59923;DHT22;45778;51.142;3.732;2022-10-16T01:53:42;13.10;99.90
59923;DHT22;45778;51.142;3.732;2022-10-16T01:56:12;13.30;99.90
59923;DHT22;45778;51.142;3.732;2022-10-16T01:58:58;13.30;99.90
59923;DHT22;45778;51.142;3.732;2022-10-16T02:01:30;13.30;99.90
59923;DHT22;45778;51.142;3.732;2022-10-16T02:03:59;13.30;99.90
59923;DHT22;45778;51.142;3.732;2022-10-16T02:06:27;13.30;99.90
59923;DHT22;45778;51.142;3.732;2022-10-16T02:08:53;13.20;99.90
59923;DHT22;45778;51.142;3.732;2022-10-16T02:11:19;13.20;99.90
59923;DHT22;45778;51.142;3.732;2022-10-16T02:14:00;13.20;99.90
59923;DHT22;45778;51.142;3.732;2022-10-16T02:16:41;13.20;99.90
59923;DHT22;45778;51.142;3.732;2022-10-16T02:19:07;13.30;99.90
59923;DHT22;45778;51.142;3.732;2022-10-16T02:21:49;13.40;99.90
59923;DHT22;45778;51.142;3.732;2022-10-16T02:24:18;13.30;99.90
59923;DHT22;45778;51.142;3.732;2022-10-16T02:27:10;13.20;99.90
59923;DHT22;45778;51.142;3.732;2022-10-16T02:29:41;13.30;99.90
59923;DHT22;45778;51.142;3.732;2022-10-16T02:32:11;13.20;99.90
59923;DHT22;45778;51.142;3.732;2022-10-16T02:34:39;13.10;99.90
59923;DHT22;45778;51.142;3.732;2022-10-16T02:37:06;13.10;99.90
59923;DHT22;45778;51.142;3.732;2022-10-16T02:39:33;13.20;99.90
59923;DHT22;45778;51.142;3.732;2022-10-16T02:41:59;13.20;99.90
59923;DHT22;45778;51.142;3.732;2022-10-16T02:44:24;13.30;99.90
59923;DHT22;45778;51.142;3.732;2022-10-16T02:46:50;13.30;99.90
59923;DHT22;45778;51.142;3.732;2022-10-16T02:49:15;13.20;99.90
59923;DHT22;45778;51.142;3.732;2022-10-16T02:51:41;13.20;99.90
59923;DHT22;45778;51.142;3.732;2022-10-16T02:54:07;13.30;99.90
59923;DHT22;45778;51.142;3.732;2022-10-16T02:56:32;13.20;99.90
59923;DHT22;45778;51.142;3.732;2022-10-16T02:58:58;13.20;99.90
59923;DHT22;45778;51.142;3.732;2022-10-16T03:01:24;13.20;99.90
59923;DHT22;45778;51.142;3.732;2022-10-16T03:03:50;13.20;99.90
59923;DHT22;45778;51.142;3.732;2022-10-16T03:06:16;13.10;99.90
59923;DHT22;45778;51.142;3.732;2022-10-16T03:08:41;13.10;99.90
59923;DHT22;45778;51.142;3.732;2022-10-16T03:11:07;13.20;99.90
59923;DHT22;45778;51.142;3.732;2022-10-16T03:13:33;13.10;99.90
59923;DHT22;45778;51.142;3.732;2022-10-16T03:15:58;13.10;99.90
59923;DHT22;45778;51.142;3.732;2022-10-16T03:18:24;13.10;99.90
59923;DHT22;45778;51.142;3.732;2022-10-16T03:20:50;13.00;99.90
59923;DHT22;45778;51.142;3.732;2022-10-16T03:23:16;13.00;99.90
59923;DHT22;45778;51.142;3.732;2022-10-16T03:25:41;12.90;99.90
59923;DHT22;45778;51.142;3.732;2022-10-16T03:28:07;12.90;99.90
59923;DHT22;45778;51.142;3.732;2022-10-16T03:30:33;12.90;99.90
59923;DHT22;45778;51.142;3.732;2022-10-16T03:32:58;13.00;99.90
59923;DHT22;45778;51.142;3.732;2022-10-16T03:35:24;13.00;99.90
59923;DHT22;45778;51.142;3.732;2022-10-16T03:37:50;13.00;99.90
59923;DHT22;45778;51.142;3.732;2022-10-16T03:40:17;12.90;99.90
59923;DHT22;45778;51.142;3.732;2022-10-16T03:42:43;12.90;99.90
59923;DHT22;45778;51.142;3.732;2022-10-16T03:45:10;12.90;99.90
59923;DHT22;45778;51.142;3.732;2022-10-16T03:47:36;12.80;99.90
59923;DHT22;45778;51.142;3.732;2022-10-16T03:50:02;12.80;99.90
59923;DHT22;45778;51.142;3.732;2022-10-16T03:52:28;12.90;99.90
59923;DHT22;45778;51.142;3.732;2022-10-16T03:54:53;12.80;99.90
59923;DHT22;45778;51.142;3.732;2022-10-16T03:57:20;12.80;99.90
59923;DHT22;45778;51.142;3.732;2022-10-16T03:59:46;12.90;99.90
59923;DHT22;45778;51.142;3.732;2022-10-16T04:02:12;12.80;99.90
59923;DHT22;45778;51.142;3.732;2022-10-16T04:04:38;12.80;99.90
59923;DHT22;45778;51.142;3.732;2022-10-16T04:07:04;12.80;99.90
59923;DHT22;45778;51.142;3.732;2022-10-16T04:09:30;12.80;99.90
59923;DHT22;45778;51.142;3.732;2022-10-16T04:11:56;12.80;99.90
59923;DHT22;45778;51.142;3.732;2022-10-16T04:14:22;12.80;99.90
59923;DHT22;45778;51.142;3.732;2022-10-16T04:16:47;12.80;99.90
59923;DHT22;45778;51.142;3.732;2022-10-16T04:19:13;12.80;99.90
59923;DHT22;45778;51.142;3.732;2022-10-16T04:21:39;12.70;99.90
59923;DHT22;45778;51.142;3.732;2022-10-16T04:24:04;12.70;99.90
59923;DHT22;45778;51.142;3.732;2022-10-16T04:26:30;12.80;99.90
59923;DHT22;45778;51.142;3.732;2022-10-16T04:28:56;12.80;99.90
59923;DHT22;45778;51.142;3.732;2022-10-16T04:31:21;12.90;99.90
59923;DHT22;45778;51.142;3.732;2022-10-16T04:33:47;12.90;99.90
59923;DHT22;45778;51.142;3.732;2022-10-16T04:36:13;12.80;99.90
59923;DHT22;45778;51.142;3.732;2022-10-16T04:38:39;12.90;99.90
59923;DHT22;45778;51.142;3.732;2022-10-16T04:41:06;12.90;99.90
59923;DHT22;45778;51.142;3.732;2022-10-16T04:43:32;12.90;99.90
59923;DHT22;45778;51.142;3.732;2022-10-16T04:45:58;12.90;99.90
59923;DHT22;45778;51.142;3.732;2022-10-16T04:48:24;12.90;99.90
59923;DHT22;45778;51.142;3.732;2022-10-16T04:50:49;13.00;99.90
59923;DHT22;45778;51.142;3.732;2022-10-16T04:53:15;13.00;99.90
59923;DHT22;45778;51.142;3.732;2022-10-16T04:55:41;13.00;99.90
59923;DHT22;45778;51.142;3.732;2022-10-16T04:58:07;12.90;99.90
59923;DHT22;45778;51.142;3.732;2022-10-16T05:00:34;12.90;99.90
59923;DHT22;45778;51.142;3.732;2022-10-16T05:02:59;12.90;99.90
59923;DHT22;45778;51.142;3.732;2022-10-16T05:05:26;12.90;99.90
59923;DHT22;45778;51.142;3.732;2022-10-16T05:07:52;12.90;99.90
59923;DHT22;45778;51.142;3.732;2022-10-16T05:10:18;13.00;99.90
59923;DHT22;45778;51.142;3.732;2022-10-16T05:12:44;13.00;99.90
59923;DHT22;45778;51.142;3.732;2022-10-16T05:15:10;13.10;99.90
59923;DHT22;45778;51.142;3.732;2022-10-16T05:17:35;13.00;99.90
59923;DHT22;45778;51.142;3.732;2022-10-16T05:20:01;13.00;99.90
59923;DHT22;45778;51.142;3.732;2022-10-16T05:22:27;13.00;99.90
59923;DHT22;45778;51.142;3.732;2022-10-16T05:24:53;13.00;99.90
59923;DHT22;45778;51.142;3.732;2022-10-16T05:27:18;13.00;99.90
59923;DHT22;45778;51.142;3.732;2022-10-16T05:29:48;13.00;99.90
59923;DHT22;45778;51.142;3.732;2022-10-16T05:32:15;13.20;99.90
59923;DHT22;45778;51.142;3.732;2022-10-16T05:34:41;13.10;99.90
59923;DHT22;45778;51.142;3.732;2022-10-16T05:37:07;13.10;99.90
59923;DHT22;45778;51.142;3.732;2022-10-16T05:39:32;13.10;99.90
59923;DHT22;45778;51.142;3.732;2022-10-16T05:41:58;13.10;99.90
59923;DHT22;45778;51.142;3.732;2022-10-16T05:44:24;13.20;99.90
59923;DHT22;45778;51.142;3.732;2022-10-16T05:46:49;13.20;99.90
59923;DHT22;45778;51.142;3.732;2022-10-16T05:49:15;13.00;99.90
59923;DHT22;45778;51.142;3.732;2022-10-16T05:51:41;12.90;99.90
59923;DHT22;45778;51.142;3.732;2022-10-16T05:54:07;13.00;99.90
59923;DHT22;45778;51.142;3.732;2022-10-16T05:56:33;12.90;99.90
59923;DHT22;45778;51.142;3.732;2022-10-16T05:58:58;12.90;99.90
59923;DHT22;45778;51.142;3.732;2022-10-16T06:01:24;12.90;99.90
59923;DHT22;45778;51.142;3.732;2022-10-16T06:03:53;12.90;99.90
59923;DHT22;45778;51.142;3.732;2022-10-16T06:06:24;12.90;99.90
59923;DHT22;45778;51.142;3.732;2022-10-16T06:08:52;13.00;99.90
59923;DHT22;45778;51.142;3.732;2022-10-16T06:11:25;12.90;99.90
59923;DHT22;45778;51.142;3.732;2022-10-16T06:13:53;12.90;99.90
59923;DHT22;45778;51.142;3.732;2022-10-16T06:16:19;12.90;99.90
59923;DHT22;45778;51.142;3.732;2022-10-16T06:18:45;12.90;99.90
59923;DHT22;45778;51.142;3.732;2022-10-16T06:21:20;13.00;99.90
59923;DHT22;45778;51.142;3.732;2022-10-16T06:23:46;13.00;99.90
59923;DHT22;45778;51.142;3.732;2022-10-16T06:26:14;13.10;99.90
59923;DHT22;45778;51.142;3.732;2022-10-16T06:28:40;13.00;99.90
59923;DHT22;45778;51.142;3.732;2022-10-16T06:31:08;13.10;99.90
59923;DHT22;45778;51.142;3.732;2022-10-16T06:33:35;13.20;99.90
59923;DHT22;45778;51.142;3.732;2022-10-16T06:38:31;13.30;99.90
59923;DHT22;45778;51.142;3.732;2022-10-16T06:40:57;13.30;99.90
59923;DHT22;45778;51.142;3.732;2022-10-16T06:43:23;13.30;99.90
59923;DHT22;45778;51.142;3.732;2022-10-16T06:45:56;13.20;99.90
59923;DHT22;45778;51.142;3.732;2022-10-16T06:48:23;13.20;99.90
59923;DHT22;45778;51.142;3.732;2022-10-16T06:51:01;13.20;99.90
59923;DHT22;45778;51.142;3.732;2022-10-16T06:53:29;13.20;99.90
59923;DHT22;45778;51.142;3.732;2022-10-16T06:55:55;13.20;99.90
59923;DHT22;45778;51.142;3.732;2022-10-16T06:58:21;13.30;99.90
59923;DHT22;45778;51.142;3.732;2022-10-16T07:00:47;13.40;99.90
59923;DHT22;45778;51.142;3.732;2022-10-16T07:03:13;13.50;99.90
59923;DHT22;45778;51.142;3.732;2022-10-16T07:05:39;13.50;99.90
59923;DHT22;45778;51.142;3.732;2022-10-16T07:08:05;13.40;99.90
59923;DHT22;45778;51.142;3.732;2022-10-16T07:10:32;13.40;99.90
59923;DHT22;45778;51.142;3.732;2022-10-16T07:12:57;13.30;99.90
59923;DHT22;45778;51.142;3.732;2022-10-16T07:15:25;13.30;99.90
59923;DHT22;45778;51.142;3.732;2022-10-16T07:17:51;13.40;99.90
59923;DHT22;45778;51.142;3.732;2022-10-16T07:20:16;13.40;99.90
59923;DHT22;45778;51.142;3.732;2022-10-16T07:22:42;13.50;99.90
59923;DHT22;45778;51.142;3.732;2022-10-16T07:25:08;13.60;99.90
59923;DHT22;45778;51.142;3.732;2022-10-16T07:27:34;13.60;99.90
59923;DHT22;45778;51.142;3.732;2022-10-16T07:30:00;13.50;99.90
59923;DHT22;45778;51.142;3.732;2022-10-16T07:32:26;13.60;99.90
59923;DHT22;45778;51.142;3.732;2022-10-16T07:34:52;13.70;99.90
59923;DHT22;45778;51.142;3.732;2022-10-16T07:37:18;13.70;99.90
59923;DHT22;45778;51.142;3.732;2022-10-16T07:39:43;13.70;99.90
59923;DHT22;45778;51.142;3.732;2022-10-16T07:42:09;13.80;99.90
59923;DHT22;45778;51.142;3.732;2022-10-16T07:44:36;13.80;99.90
59923;DHT22;45778;51.142;3.732;2022-10-16T07:47:01;13.80;99.90
59923;DHT22;45778;51.142;3.732;2022-10-16T07:49:28;14.00;99.90
59923;DHT22;45778;51.142;3.732;2022-10-16T07:51:53;14.00;99.90
59923;DHT22;45778;51.142;3.732;2022-10-16T07:54:19;14.00;99.90
59923;DHT22;45778;51.142;3.732;2022-10-16T07:56:45;14.00;99.90
59923;DHT22;45778;51.142;3.732;2022-10-16T07:59:10;14.10;99.90
59923;DHT22;45778;51.142;3.732;2022-10-16T08:01:36;14.10;99.90
59923;DHT22;45778;51.142;3.732;2022-10-16T08:04:02;14.20;99.90
59923;DHT22;45778;51.142;3.732;2022-10-16T08:06:27;14.10;99.90
59923;DHT22;45778;51.142;3.732;2022-10-16T08:08:53;14.20;99.90
59923;DHT22;45778;51.142;3.732;2022-10-16T08:11:19;14.30;99.90
59923;DHT22;45778;51.142;3.732;2022-10-16T08:13:44;14.40;99.90
59923;DHT22;45778;51.142;3.732;2022-10-16T08:16:10;14.30;99.90
59923;DHT22;45778;51.142;3.732;2022-10-16T08:18:38;14.40;99.90
59923;DHT22;45778;51.142;3.732;2022-10-16T08:21:04;14.50;99.90
59923;DHT22;45778;51.142;3.732;2022-10-16T08:23:31;14.60;99.90
59923;DHT22;45778;51.142;3.732;2022-10-16T08:26:03;14.70;99.90
59923;DHT22;45778;51.142;3.732;2022-10-16T08:28:29;14.70;99.90
59923;DHT22;45778;51.142;3.732;2022-10-16T08:30:55;14.70;99.90
59923;DHT22;45778;51.142;3.732;2022-10-16T08:33:22;14.80;99.90
59923;DHT22;45778;51.142;3.732;2022-10-16T08:35:52;14.90;99.90
59923;DHT22;45778;51.142;3.732;2022-10-16T08:38:19;15.00;99.90
59923;DHT22;45778;51.142;3.732;2022-10-16T08:40:44;15.00;99.90
59923;DHT22;45778;51.142;3.732;2022-10-16T08:48:49;15.10;99.90
59923;DHT22;45778;51.142;3.732;2022-10-16T08:51:22;15.20;99.90
59923;DHT22;45778;51.142;3.732;2022-10-16T08:53:57;15.30;99.90
59923;DHT22;45778;51.142;3.732;2022-10-16T08:56:25;15.40;99.90
59923;DHT22;45778;51.142;3.732;2022-10-16T08:58:52;15.40;99.90
59923;DHT22;45778;51.142;3.732;2022-10-16T09:01:20;15.50;99.90
59923;DHT22;45778;51.142;3.732;2022-10-16T09:09:07;15.50;99.90
59923;DHT22;45778;51.142;3.732;2022-10-16T09:11:55;15.40;99.90
59923;DHT22;45778;51.142;3.732;2022-10-16T09:14:31;15.40;99.90
59923;DHT22;45778;51.142;3.732;2022-10-16T09:17:30;15.40;99.90
59923;DHT22;45778;51.142;3.732;2022-10-16T09:25:49;15.80;99.90
59923;DHT22;45778;51.142;3.732;2022-10-16T09:28:17;15.90;99.90
59923;DHT22;45778;51.142;3.732;2022-10-16T09:30:43;15.90;99.90
59923;DHT22;45778;51.142;3.732;2022-10-16T09:33:10;16.00;99.90
59923;DHT22;45778;51.142;3.732;2022-10-16T09:35:38;16.10;99.90
59923;DHT22;45778;51.142;3.732;2022-10-16T09:38:04;16.30;99.90
59923;DHT22;45778;51.142;3.732;2022-10-16T09:40:36;16.30;99.90
59923;DHT22;45778;51.142;3.732;2022-10-16T09:43:31;16.30;99.90
59923;DHT22;45778;51.142;3.732;2022-10-16T09:46:01;16.50;99.90
59923;DHT22;45778;51.142;3.732;2022-10-16T09:48:37;16.60;99.90
59923;DHT22;45778;51.142;3.732;2022-10-16T09:51:06;16.60;99.90
59923;DHT22;45778;51.142;3.732;2022-10-16T09:53:45;16.80;99.90
59923;DHT22;45778;51.142;3.732;2022-10-16T09:56:21;16.90;99.90
59923;DHT22;45778;51.142;3.732;2022-10-16T09:58:51;17.10;99.90
59923;DHT22;45778;51.142;3.732;2022-10-16T10:01:19;17.30;99.90
59923;DHT22;45778;51.142;3.732;2022-10-16T10:03:45;17.40;99.90
59923;DHT22;45778;51.142;3.732;2022-10-16T10:06:24;17.30;99.90
59923;DHT22;45778;51.142;3.732;2022-10-16T10:08:55;17.30;99.90
59923;DHT22;45778;51.142;3.732;2022-10-16T10:14:23;17.00;99.90
59923;DHT22;45778;51.142;3.732;2022-10-16T10:16:50;16.90;99.90
59923;DHT22;45778;51.142;3.732;2022-10-16T10:19:19;17.10;99.90
59923;DHT22;45778;51.142;3.732;2022-10-16T10:21:46;17.10;99.90
59923;DHT22;45778;51.142;3.732;2022-10-16T10:24:13;17.20;99.90
59923;DHT22;45778;51.142;3.732;2022-10-16T10:26:49;17.40;99.90
59923;DHT22;45778;51.142;3.732;2022-10-16T10:29:31;17.80;99.90
59923;DHT22;45778;51.142;3.732;2022-10-16T10:32:28;17.80;99.90
59923;DHT22;45778;51.142;3.732;2022-10-16T10:35:19;17.80;99.90
59923;DHT22;45778;51.142;3.732;2022-10-16T10:40:52;17.90;99.90
59923;DHT22;45778;51.142;3.732;2022-10-16T10:46:05;18.30;99.90
59923;DHT22;45778;51.142;3.732;2022-10-16T10:48:54;18.50;99.90
59923;DHT22;45778;51.142;3.732;2022-10-16T10:51:59;18.60;99.90
59923;DHT22;45778;51.142;3.732;2022-10-16T10:54:40;18.70;99.90
59923;DHT22;45778;51.142;3.732;2022-10-16T10:58:15;18.60;99.90
59923;DHT22;45778;51.142;3.732;2022-10-16T11:05:46;18.90;99.90
59923;DHT22;45778;51.142;3.732;2022-10-16T11:08:26;19.10;99.90
59923;DHT22;45778;51.142;3.732;2022-10-16T11:11:00;19.30;99.90
59923;DHT22;45778;51.142;3.732;2022-10-16T11:13:42;19.10;99.90
59923;DHT22;45778;51.142;3.732;2022-10-16T11:16:23;19.20;99.90
59923;DHT22;45778;51.142;3.732;2022-10-16T11:21:43;19.90;99.90
59923;DHT22;45778;51.142;3.732;2022-10-16T11:24:14;19.90;99.90
59923;DHT22;45778;51.142;3.732;2022-10-16T11:26:43;19.50;99.90
59923;DHT22;45778;51.142;3.732;2022-10-16T11:29:28;19.40;99.90
59923;DHT22;45778;51.142;3.732;2022-10-16T11:32:12;19.10;99.90
59923;DHT22;45778;51.142;3.732;2022-10-16T11:34:51;19.20;99.90
59923;DHT22;45778;51.142;3.732;2022-10-16T11:37:21;19.30;99.90
59923;DHT22;45778;51.142;3.732;2022-10-16T11:39:50;19.20;99.90
59923;DHT22;45778;51.142;3.732;2022-10-16T11:42:37;19.10;99.90
59923;DHT22;45778;51.142;3.732;2022-10-16T11:50:24;20.10;99.90
59923;DHT22;45778;51.142;3.732;2022-10-16T11:53:11;20.60;99.90
59923;DHT22;45778;51.142;3.732;2022-10-16T11:55:41;21.30;99.90
59923;DHT22;45778;51.142;3.732;2022-10-16T11:58:41;21.20;99.90
59923;DHT22;45778;51.142;3.732;2022-10-16T12:07:05;22.60;99.90
59923;DHT22;45778;51.142;3.732;2022-10-16T12:09:37;23.80;97.10
59923;DHT22;45778;51.142;3.732;2022-10-16T12:12:03;23.30;97.10
59923;DHT22;45778;51.142;3.732;2022-10-16T12:14:39;23.30;97.40
59923;DHT22;45778;51.142;3.732;2022-10-16T12:19:57;23.40;96.70
59923;DHT22;45778;51.142;3.732;2022-10-16T12:22:26;24.00;96.50
59923;DHT22;45778;51.142;3.732;2022-10-16T12:24:54;24.40;94.50
59923;DHT22;45778;51.142;3.732;2022-10-16T12:27:30;24.00;94.70
59923;DHT22;45778;51.142;3.732;2022-10-16T12:29:59;23.80;95.70
59923;DHT22;45778;51.142;3.732;2022-10-16T12:34:51;22.40;96.50
59923;DHT22;45778;51.142;3.732;2022-10-16T12:37:26;22.10;97.10
59923;DHT22;45778;51.142;3.732;2022-10-16T12:39:54;21.70;97.90
59923;DHT22;45778;51.142;3.732;2022-10-16T12:42:22;22.30;98.80
59923;DHT22;45778;51.142;3.732;2022-10-16T12:44:48;23.10;96.60
59923;DHT22;45778;51.142;3.732;2022-10-16T12:47:36;23.40;96.80
59923;DHT22;45778;51.142;3.732;2022-10-16T12:50:03;24.40;95.10
59923;DHT22;45778;51.142;3.732;2022-10-16T12:52:38;24.70;93.90
59923;DHT22;45778;51.142;3.732;2022-10-16T12:55:05;25.60;93.20
59923;DHT22;45778;51.142;3.732;2022-10-16T12:57:58;25.90;91.30
59923;DHT22;45778;51.142;3.732;2022-10-16T13:00:32;25.40;91.10
59923;DHT22;45778;51.142;3.732;2022-10-16T13:06:08;24.20;92.00
59923;DHT22;45778;51.142;3.732;2022-10-16T13:17:22;24.10;91.90
59923;DHT22;45778;51.142;3.732;2022-10-16T13:22:48;25.00;91.10
59923;DHT22;45778;51.142;3.732;2022-10-16T13:28:28;24.20;90.90
59923;DHT22;45778;51.142;3.732;2022-10-16T13:30:58;22.80;93.10
59923;DHT22;45778;51.142;3.732;2022-10-16T13:33:36;22.20;94.50
59923;DHT22;45778;51.142;3.732;2022-10-16T13:36:04;21.40;95.60
59923;DHT22;45778;51.142;3.732;2022-10-16T13:38:32;21.10;96.70
59923;DHT22;45778;51.142;3.732;2022-10-16T13:41:06;21.10;97.70
59923;DHT22;45778;51.142;3.732;2022-10-16T13:43:44;21.20;97.80
59923;DHT22;45778;51.142;3.732;2022-10-16T13:46:15;21.40;97.30
59923;DHT22;45778;51.142;3.732;2022-10-16T13:48:42;22.00;96.10
59923;DHT22;45778;51.142;3.732;2022-10-16T13:51:14;22.00;96.40
59923;DHT22;45778;51.142;3.732;2022-10-16T13:53:40;23.10;96.50
59923;DHT22;45778;51.142;3.732;2022-10-16T13:56:12;23.10;95.20
59923;DHT22;45778;51.142;3.732;2022-10-16T13:58:38;22.30;95.70
59923;DHT22;45778;51.142;3.732;2022-10-16T14:01:06;21.40;97.00
59923;DHT22;45778;51.142;3.732;2022-10-16T14:03:41;21.50;97.60
59923;DHT22;45778;51.142;3.732;2022-10-16T14:06:14;21.20;98.20
59923;DHT22;45778;51.142;3.732;2022-10-16T14:09:07;20.50;98.60
59923;DHT22;45778;51.142;3.732;2022-10-16T14:11:44;20.10;99.90
59923;DHT22;45778;51.142;3.732;2022-10-16T14:14:12;20.00;99.90
59923;DHT22;45778;51.142;3.732;2022-10-16T14:16:41;20.00;99.90
59923;DHT22;45778;51.142;3.732;2022-10-16T14:19:18;19.90;99.90
59923;DHT22;45778;51.142;3.732;2022-10-16T14:21:44;19.60;99.90
59923;DHT22;45778;51.142;3.732;2022-10-16T14:24:22;19.20;99.90
59923;DHT22;45778;51.142;3.732;2022-10-16T14:26:49;19.30;99.90
59923;DHT22;45778;51.142;3.732;2022-10-16T14:29:19;19.50;99.90
59923;DHT22;45778;51.142;3.732;2022-10-16T14:31:59;19.40;99.90
59923;DHT22;45778;51.142;3.732;2022-10-16T14:36:55;19.20;99.90
59923;DHT22;45778;51.142;3.732;2022-10-16T14:39:22;19.20;99.90
59923;DHT22;45778;51.142;3.732;2022-10-16T14:41:50;19.00;99.90
59923;DHT22;45778;51.142;3.732;2022-10-16T14:44:21;18.90;99.90
59923;DHT22;45778;51.142;3.732;2022-10-16T14:46:50;18.80;99.90
59923;DHT22;45778;51.142;3.732;2022-10-16T14:49:18;18.60;99.90
59923;DHT22;45778;51.142;3.732;2022-10-16T14:51:46;18.70;99.90
59923;DHT22;45778;51.142;3.732;2022-10-16T14:54:17;18.80;99.90
59923;DHT22;45778;51.142;3.732;2022-10-16T14:56:48;18.70;99.90
59923;DHT22;45778;51.142;3.732;2022-10-16T14:59:39;18.50;99.90
59923;DHT22;45778;51.142;3.732;2022-10-16T15:02:27;18.50;99.90
59923;DHT22;45778;51.142;3.732;2022-10-16T15:04:53;18.40;99.90
59923;DHT22;45778;51.142;3.732;2022-10-16T15:07:19;18.50;99.90
59923;DHT22;45778;51.142;3.732;2022-10-16T15:09:45;18.40;99.90
59923;DHT22;45778;51.142;3.732;2022-10-16T15:12:11;18.50;99.90
59923;DHT22;45778;51.142;3.732;2022-10-16T15:14:37;18.50;99.90
59923;DHT22;45778;51.142;3.732;2022-10-16T15:17:02;18.70;99.90
59923;DHT22;45778;51.142;3.732;2022-10-16T15:19:28;18.70;99.90
59923;DHT22;45778;51.142;3.732;2022-10-16T15:21:54;18.80;99.90
59923;DHT22;45778;51.142;3.732;2022-10-16T15:24:19;18.50;99.90
59923;DHT22;45778;51.142;3.732;2022-10-16T15:26:45;18.40;99.90
59923;DHT22;45778;51.142;3.732;2022-10-16T15:29:14;18.50;99.90
59923;DHT22;45778;51.142;3.732;2022-10-16T15:31:40;18.30;99.90
59923;DHT22;45778;51.142;3.732;2022-10-16T15:34:10;18.40;99.90
59923;DHT22;45778;51.142;3.732;2022-10-16T15:36:37;18.50;99.90
59923;DHT22;45778;51.142;3.732;2022-10-16T15:39:04;18.60;99.90
59923;DHT22;45778;51.142;3.732;2022-10-16T15:41:31;18.30;99.90
59923;DHT22;45778;51.142;3.732;2022-10-16T15:43:56;18.20;99.90
59923;DHT22;45778;51.142;3.732;2022-10-16T15:46:23;18.20;99.90
59923;DHT22;45778;51.142;3.732;2022-10-16T15:48:50;18.20;99.90
59923;DHT22;45778;51.142;3.732;2022-10-16T15:51:17;18.30;99.90
59923;DHT22;45778;51.142;3.732;2022-10-16T15:53:43;18.20;99.90
59923;DHT22;45778;51.142;3.732;2022-10-16T15:56:12;18.10;99.90
59923;DHT22;45778;51.142;3.732;2022-10-16T15:58:38;18.10;99.90
59923;DHT22;45778;51.142;3.732;2022-10-16T16:01:03;18.10;99.90
59923;DHT22;45778;51.142;3.732;2022-10-16T16:03:30;18.20;99.90
59923;DHT22;45778;51.142;3.732;2022-10-16T16:05:57;18.30;99.90
59923;DHT22;45778;51.142;3.732;2022-10-16T16:08:22;18.30;99.90
59923;DHT22;45778;51.142;3.732;2022-10-16T16:11:02;18.40;99.90
59923;DHT22;45778;51.142;3.732;2022-10-16T16:13:28;18.50;99.90
59923;DHT22;45778;51.142;3.732;2022-10-16T16:15:54;18.40;99.90
59923;DHT22;45778;51.142;3.732;2022-10-16T16:18:19;18.40;99.90
59923;DHT22;45778;51.142;3.732;2022-10-16T16:20:45;18.50;99.90
59923;DHT22;45778;51.142;3.732;2022-10-16T16:23:11;18.50;99.90
59923;DHT22;45778;51.142;3.732;2022-10-16T16:25:36;18.40;99.90
59923;DHT22;45778;51.142;3.732;2022-10-16T16:28:02;18.40;99.90
59923;DHT22;45778;51.142;3.732;2022-10-16T16:30:28;18.40;99.90
59923;DHT22;45778;51.142;3.732;2022-10-16T16:32:53;18.30;99.90
59923;DHT22;45778;51.142;3.732;2022-10-16T16:35:19;18.30;99.90
59923;DHT22;45778;51.142;3.732;2022-10-16T16:37:46;18.20;99.90
59923;DHT22;45778;51.142;3.732;2022-10-16T16:40:11;18.20;99.90
59923;DHT22;45778;51.142;3.732;2022-10-16T16:42:37;18.10;99.90
59923;DHT22;45778;51.142;3.732;2022-10-16T16:45:03;18.00;99.90
59923;DHT22;45778;51.142;3.732;2022-10-16T16:47:29;18.10;99.90
59923;DHT22;45778;51.142;3.732;2022-10-16T16:49:54;18.00;99.90
59923;DHT22;45778;51.142;3.732;2022-10-16T16:52:20;18.00;99.90
59923;DHT22;45778;51.142;3.732;2022-10-16T16:54:47;17.80;99.90
59923;DHT22;45778;51.142;3.732;2022-10-16T16:57:18;17.70;99.90
59923;DHT22;45778;51.142;3.732;2022-10-16T16:59:44;17.70;99.90
59923;DHT22;45778;51.142;3.732;2022-10-16T17:02:09;17.70;99.90
59923;DHT22;45778;51.142;3.732;2022-10-16T17:04:35;17.60;99.90
59923;DHT22;45778;51.142;3.732;2022-10-16T17:07:01;17.50;99.90
59923;DHT22;45778;51.142;3.732;2022-10-16T17:09:26;17.40;99.90